Time;durP1;ratioP1;P1;durP2;ratioP2;P2;SDS_P1;SDS_P2;PMS_P1;PMS_P2;Temp;Humidity;BMP_temperature;BMP_pressure;BME280_temperature;BME280_humidity;BME280_pressure;Samples;Min_cycle;Max_cycle;Signal;HPM_P1;HPM_P2
2022/06/17 00:01:11;;;;;;;8.30;7.43;;;;;;;;;;5055535;28;20205;-65
2022/06/17 00:03:36;;;;;;;7.60;6.83;;;;;;;;;;5055266;28;20202;-65
2022/06/17 00:06:04;;;;;;;12.33;8.03;;;;;;;;;;5037400;28;20179;-66
2022/06/17 00:08:31;;;;;;;8.40;6.67;;;;;;;;;;5054956;28;20228;-66
2022/06/17 00:10:57;;;;;;;6.63;4.97;;;;;;;;;;5055018;28;20221;-66
2022/06/17 00:13:24;;;;;;;6.53;4.33;;;;;;;;;;5055022;28;20197;-66
2022/06/17 00:15:51;;;;;;;5.50;5.00;;;;;;;;;;5054858;28;20171;-66
2022/06/17 00:18:17;;;;;;;7.60;6.63;;;;;;;;;;5037214;28;20274;-66
2022/06/17 00:20:44;;;;;;;8.30;6.00;;;;;;;;;;5054711;28;20186;-66
2022/06/17 00:23:12;;;;;;;7.57;5.73;;;;;;;;;;5054780;28;20682;-66
2022/06/17 00:25:39;;;;;;;5.87;5.30;;;;;;;;;;5037100;28;20179;-66
2022/06/17 00:28:09;;;;;;;8.17;6.80;;;;;;;;;;5036684;28;20253;-67
2022/06/17 00:30:35;;;;;;;9.87;7.73;;;;;;;;;;5054838;28;20197;-68
2022/06/17 00:33:02;;;;;;;7.03;5.37;;;;;;;;;;5054632;28;20615;-66
2022/06/17 00:35:30;;;;;;;5.03;4.53;;;;;;;;;;5036689;28;20208;-66
2022/06/17 00:37:56;;;;;;;6.50;4.50;;;;;;;;;;5054561;28;20273;-66
2022/06/17 00:40:24;;;;;;;5.27;4.40;;;;;;;;;;5054866;28;20175;-66
2022/06/17 00:42:50;;;;;;;10.17;6.63;;;;;;;;;;5054344;28;20241;-65
2022/06/17 00:45:16;;;;;;;7.93;6.97;;;;;;;;;;5036477;28;20261;-66
2022/06/17 00:47:47;;;;;;;7.80;6.73;;;;;;;;;;5054521;28;20692;-66
2022/06/17 00:50:19;;;;;;;7.43;6.43;;;;;;;;;;5054480;28;20183;-67
2022/06/17 00:52:56;;;;;;;7.37;5.57;;;;;;;;;;5053887;28;20224;-66
2022/06/17 00:55:30;;;;;;;6.90;5.43;;;;;;;;;;5054493;28;20177;-65
2022/06/17 00:57:57;;;;;;;6.60;5.03;;;;;;;;;;5036488;28;20189;-66
2022/06/17 01:00:25;;;;;;;4.93;4.10;;;;;;;;;;5054348;28;20213;-66
2022/06/17 01:02:53;;;;;;;5.43;4.40;;;;;;;;;;5053942;28;20241;-68
2022/06/17 01:05:22;;;;;;;6.23;4.27;;;;;;;;;;5054196;28;20171;-66
2022/06/17 01:07:51;;;;;;;7.23;6.10;;;;;;;;;;5054219;28;20190;-66
2022/06/17 01:10:19;;;;;;;4.70;4.13;;;;;;;;;;5036190;28;20178;-66
2022/06/17 01:12:48;;;;;;;5.20;4.70;;;;;;;;;;5053858;28;20220;-66
2022/06/17 01:15:17;;;;;;;5.37;4.83;;;;;;;;;;5054473;28;20548;-66
2022/06/17 01:17:43;;;;;;;5.63;5.03;;;;;;;;;;5054138;28;20178;-66
2022/06/17 01:20:10;;;;;;;5.97;4.73;;;;;;;;;;5053833;28;20232;-66
2022/06/17 01:22:49;;;;;;;5.23;4.63;;;;;;;;;;5053796;28;20626;-66
2022/06/17 01:25:23;;;;;;;5.70;5.13;;;;;;;;;;5053950;28;20200;-65
2022/06/17 01:27:50;;;;;;;5.20;4.40;;;;;;;;;;5054995;28;20559;-67
2022/06/17 01:30:22;;;;;;;6.93;4.73;;;;;;;;;;5053759;28;20216;-66
2022/06/17 01:32:56;;;;;;;5.70;4.50;;;;;;;;;;5037651;28;20248;-67
2022/06/17 01:35:24;;;;;;;7.07;6.23;;;;;;;;;;5057958;28;20178;-66
2022/06/17 01:37:50;;;;;;;10.40;7.90;;;;;;;;;;5040107;28;20233;-66
2022/06/17 01:40:17;;;;;;;11.00;9.37;;;;;;;;;;5040180;28;20200;-66
2022/06/17 01:42:44;;;;;;;13.97;11.17;;;;;;;;;;5057741;28;20217;-66
2022/06/17 01:45:11;;;;;;;13.43;10.00;;;;;;;;;;5040368;28;20197;-66
2022/06/17 01:47:38;;;;;;;8.37;7.00;;;;;;;;;;5057699;28;20182;-66
2022/06/17 01:50:07;;;;;;;11.80;9.13;;;;;;;;;;5057970;28;20197;-66
2022/06/17 01:52:35;;;;;;;14.30;12.00;;;;;;;;;;5039804;28;20202;-65
2022/06/17 01:55:06;;;;;;;12.50;9.10;;;;;;;;;;5058045;28;20179;-66
2022/06/17 01:57:35;;;;;;;9.23;8.23;;;;;;;;;;5058152;28;20614;-67
2022/06/17 02:00:04;;;;;;;11.57;8.40;;;;;;;;;;5057730;28;20186;-67
2022/06/17 02:02:30;;;;;;;9.40;8.33;;;;;;;;;;5039334;28;20211;-66
2022/06/17 02:04:59;;;;;;;11.90;7.70;;;;;;;;;;5039556;28;20179;-66
2022/06/17 02:07:31;;;;;;;8.43;7.07;;;;;;;;;;5057266;28;20185;-66
2022/06/17 02:09:57;;;;;;;9.13;6.77;;;;;;;;;;5039422;28;20664;-66
2022/06/17 02:12:24;;;;;;;8.87;6.90;;;;;;;;;;5057449;28;20202;-66
2022/06/17 02:14:51;;;;;;;9.90;6.53;;;;;;;;;;5057355;28;20204;-66
2022/06/17 02:17:17;;;;;;;9.80;6.10;;;;;;;;;;5057042;28;20178;-66
2022/06/17 02:19:44;;;;;;;6.67;5.90;;;;;;;;;;5056807;28;20184;-66
2022/06/17 02:22:13;;;;;;;8.17;5.20;;;;;;;;;;5057335;28;20289;-66
2022/06/17 02:24:39;;;;;;;8.27;5.23;;;;;;;;;;5057204;28;20228;-66
2022/06/17 02:27:07;;;;;;;5.70;4.87;;;;;;;;;;5039115;28;20174;-65
2022/06/17 02:29:35;;;;;;;7.67;4.87;;;;;;;;;;5056882;28;20179;-66
2022/06/17 02:32:02;;;;;;;5.83;5.03;;;;;;;;;;5038866;28;20229;-66
2022/06/17 02:34:28;;;;;;;7.93;5.50;;;;;;;;;;5057250;28;20228;-66
2022/06/17 02:36:57;;;;;;;7.37;4.83;;;;;;;;;;5038977;28;20197;-65
2022/06/17 02:39:23;;;;;;;6.97;5.50;;;;;;;;;;5038795;28;20191;-66
2022/06/17 02:41:51;;;;;;;6.13;4.37;;;;;;;;;;5038496;28;20212;-66
2022/06/17 02:44:22;;;;;;;6.67;4.90;;;;;;;;;;5056064;28;20217;-66
2022/06/17 02:46:48;;;;;;;7.03;4.63;;;;;;;;;;5039045;28;20587;-66
2022/06/17 02:49:18;;;;;;;5.87;4.30;;;;;;;;;;5038650;28;20269;-66
2022/06/17 02:51:45;;;;;;;5.10;4.50;;;;;;;;;;5057388;28;20190;-65
2022/06/17 02:54:15;;;;;;;5.47;4.63;;;;;;;;;;5056915;28;20179;-66
2022/06/17 02:56:44;;;;;;;4.47;4.07;;;;;;;;;;5058134;28;20182;-66
2022/06/17 02:59:21;;;;;;;6.63;4.57;;;;;;;;;;5063046;28;20232;-66
2022/06/17 03:01:47;;;;;;;5.20;4.43;;;;;;;;;;5056621;28;20218;-66
2022/06/17 03:04:20;;;;;;;4.43;3.93;;;;;;;;;;5056704;28;20186;-66
2022/06/17 03:06:47;;;;;;;5.47;4.60;;;;;;;;;;5056462;28;20174;-66
2022/06/17 03:09:24;;;;;;;5.97;4.30;;;;;;;;;;5056758;28;20182;-65
2022/06/17 03:11:53;;;;;;;5.57;4.47;;;;;;;;;;5056081;28;20191;-66
2022/06/17 03:14:20;;;;;;;6.37;4.10;;;;;;;;;;5038357;28;20178;-66
2022/06/17 03:16:47;;;;;;;6.33;4.33;;;;;;;;;;5038381;28;20182;-66
2022/06/17 03:19:13;;;;;;;7.37;4.43;;;;;;;;;;5039026;28;20178;-66
2022/06/17 03:21:39;;;;;;;4.10;3.63;;;;;;;;;;5056342;28;20194;-66
2022/06/17 03:24:11;;;;;;;5.03;3.83;;;;;;;;;;5038205;28;20217;-66
2022/06/17 03:26:39;;;;;;;3.77;3.40;;;;;;;;;;5056371;28;20662;-66
2022/06/17 03:29:06;;;;;;;4.80;3.93;;;;;;;;;;5056247;28;20630;-66
2022/06/17 03:31:32;;;;;;;4.40;4.00;;;;;;;;;;5056196;28;20201;-66
2022/06/17 03:34:04;;;;;;;4.90;4.03;;;;;;;;;;5055760;28;20182;-66
2022/06/17 03:36:34;;;;;;;4.83;3.70;;;;;;;;;;5056470;28;20611;-66
2022/06/17 03:39:02;;;;;;;5.43;3.77;;;;;;;;;;5055868;28;20182;-66
2022/06/17 03:41:37;;;;;;;3.97;3.63;;;;;;;;;;5055503;28;20214;-66
2022/06/17 03:44:08;;;;;;;3.50;3.20;;;;;;;;;;5055494;28;20209;-66
2022/06/17 03:46:43;;;;;;;3.87;3.57;;;;;;;;;;5037605;28;20214;-66
2022/06/17 03:49:14;;;;;;;5.83;3.87;;;;;;;;;;5056023;28;20150;-66
2022/06/17 03:51:42;;;;;;;3.83;3.43;;;;;;;;;;5055707;28;20191;-66
2022/06/17 03:54:13;;;;;;;4.27;3.77;;;;;;;;;;5055410;28;20265;-66
2022/06/17 03:56:41;;;;;;;4.93;3.73;;;;;;;;;;5055381;28;20213;-67
2022/06/17 03:59:08;;;;;;;3.80;3.33;;;;;;;;;;5056119;28;20500;-66
2022/06/17 04:01:37;;;;;;;3.53;3.23;;;;;;;;;;5055957;28;20206;-66
2022/06/17 04:04:09;;;;;;;4.23;3.33;;;;;;;;;;5055491;28;20201;-64
2022/06/17 04:06:37;;;;;;;4.27;3.60;;;;;;;;;;5055377;28;20162;-66
2022/06/17 04:09:14;;;;;;;5.23;3.50;;;;;;;;;;5037260;28;20646;-65
2022/06/17 04:11:40;;;;;;;5.67;3.60;;;;;;;;;;5037395;28;20272;-65
2022/06/17 04:14:15;;;;;;;4.77;3.30;;;;;;;;;;5056112;28;20178;-68
2022/06/17 04:16:52;;;;;;;3.60;3.30;;;;;;;;;;5056019;28;20237;-69
2022/06/17 04:19:20;;;;;;;3.70;3.30;;;;;;;;;;5055693;28;20162;-67
2022/06/17 04:21:46;;;;;;;3.63;3.33;;;;;;;;;;5037514;28;20226;-66
2022/06/17 04:24:14;;;;;;;5.13;3.27;;;;;;;;;;5055165;28;20244;-66
2022/06/17 04:26:40;;;;;;;4.67;3.63;;;;;;;;;;5054805;28;20258;-66
2022/06/17 04:29:08;;;;;;;3.83;2.87;;;;;;;;;;5036942;28;20175;-66
2022/06/17 04:31:34;;;;;;;3.77;3.47;;;;;;;;;;5055172;28;20293;-66
2022/06/17 04:34:16;;;;;;;4.73;3.70;;;;;;;;;;5054732;28;20175;-65
2022/06/17 04:36:55;;;;;;;4.20;3.63;;;;;;;;;;5055059;28;20545;-66
2022/06/17 04:39:24;;;;;;;7.87;3.47;;;;;;;;;;5054852;28;20344;-66
2022/06/17 04:41:53;;;;;;;3.97;3.30;;;;;;;;;;5054797;28;20213;-66
2022/06/17 04:44:18;;;;;;;4.10;3.70;;;;;;;;;;5055146;28;20199;-67
2022/06/17 04:46:44;;;;;;;5.10;3.67;;;;;;;;;;5037124;28;20182;-65
2022/06/17 04:49:16;;;;;;;4.23;3.33;;;;;;;;;;5037177;28;20269;-64
2022/06/17 04:51:42;;;;;;;4.10;3.20;;;;;;;;;;5039054;28;20202;-66
2022/06/17 04:54:08;;;;;;;4.13;3.73;;;;;;;;;;5058459;28;20193;-65
2022/06/17 04:56:35;;;;;;;6.00;4.07;;;;;;;;;;5057975;28;20182;-65
2022/06/17 04:59:15;;;;;;;5.57;3.10;;;;;;;;;;5057956;28;20178;-66
2022/06/17 05:01:42;;;;;;;5.90;3.23;;;;;;;;;;5057840;28;20197;-67
2022/06/17 05:04:08;;;;;;;4.97;3.43;;;;;;;;;;5055977;28;20214;-67
2022/06/17 05:06:33;;;;;;;5.40;3.50;;;;;;;;;;5036757;28;20209;-67
2022/06/17 05:09:04;;;;;;;4.53;3.37;;;;;;;;;;5054733;28;20175;-66
2022/06/17 05:11:33;;;;;;;7.43;3.57;;;;;;;;;;5036859;28;20198;-67
2022/06/17 05:14:03;;;;;;;4.87;3.10;;;;;;;;;;5054560;28;20182;-67
2022/06/17 05:16:29;;;;;;;3.13;2.83;;;;;;;;;;5036764;28;20232;-67
2022/06/17 05:18:55;;;;;;;3.30;3.00;;;;;;;;;;5036788;28;20178;-66
2022/06/17 05:21:22;;;;;;;5.13;3.40;;;;;;;;;;5036994;28;20182;-66
2022/06/17 05:23:50;;;;;;;3.97;3.42;;;;;;;;;;5054259;28;20900;-67
2022/06/17 05:26:16;;;;;;;5.50;3.83;;;;;;;;;;5035593;28;20401;-67
2022/06/17 05:28:42;;;;;;;5.93;3.77;;;;;;;;;;5036328;28;20277;-66
2022/06/17 05:31:11;;;;;;;4.07;3.30;;;;;;;;;;5054321;28;20214;-66
2022/06/17 05:33:37;;;;;;;7.23;3.73;;;;;;;;;;5054599;28;20261;-66
2022/06/17 05:36:03;;;;;;;4.87;3.10;;;;;;;;;;5054402;28;20178;-65
2022/06/17 05:38:30;;;;;;;3.80;3.30;;;;;;;;;;5035988;28;20700;-68
2022/06/17 05:40:56;;;;;;;7.23;3.53;;;;;;;;;;5035801;28;20639;-66
2022/06/17 05:43:22;;;;;;;6.07;3.90;;;;;;;;;;5052671;28;20420;-68
2022/06/17 05:45:48;;;;;;;4.63;3.60;;;;;;;;;;5036900;28;20519;-68
2022/06/17 05:48:14;;;;;;;4.20;3.10;;;;;;;;;;5054955;28;20243;-68
2022/06/17 05:50:40;;;;;;;4.50;2.73;;;;;;;;;;5053533;28;20214;-68
2022/06/17 05:53:08;;;;;;;3.72;3.22;;;;;;;;;;5052525;28;20873;-72
2022/06/17 05:55:34;;;;;;;3.07;2.87;;;;;;;;;;5035373;28;20186;-68
2022/06/17 05:58:00;;;;;;;5.10;3.00;;;;;;;;;;5053725;28;20175;-66
2022/06/17 06:00:27;;;;;;;3.37;2.83;;;;;;;;;;5053950;28;20242;-68
2022/06/17 06:02:57;;;;;;;3.03;2.57;;;;;;;;;;5035882;28;20688;-66
2022/06/17 06:05:24;;;;;;;4.18;3.03;;;;;;;;;;5053058;28;20377;-66
2022/06/17 06:07:50;;;;;;;3.87;2.77;;;;;;;;;;5036896;28;20202;-68
2022/06/17 06:10:16;;;;;;;3.87;3.10;;;;;;;;;;5036762;28;20175;-66
2022/06/17 06:12:57;;;;;;;4.17;2.57;;;;;;;;;;5054272;28;20599;-66
2022/06/17 06:15:27;;;;;;;5.23;3.47;;;;;;;;;;5036234;28;20660;-68
2022/06/17 06:17:54;;;;;;;6.03;3.37;;;;;;;;;;5036637;28;20685;-68
2022/06/17 06:20:20;;;;;;;9.13;3.23;;;;;;;;;;5058874;23;20227;-64
2022/06/17 06:22:46;;;;;;;8.23;4.10;;;;;;;;;;5018743;28;20199;-65
2022/06/17 06:25:13;;;;;;;7.10;4.20;;;;;;;;;;5018835;28;20617;-67
2022/06/17 06:27:39;;;;;;;5.50;3.30;;;;;;;;;;5018466;28;20628;-69
2022/06/17 06:30:05;;;;;;;6.70;3.27;;;;;;;;;;5018442;28;20230;-68
2022/06/17 06:32:31;;;;;;;4.47;3.20;;;;;;;;;;5036473;28;20183;-68
2022/06/17 06:34:57;;;;;;;4.73;3.40;;;;;;;;;;5018664;28;20183;-68
2022/06/17 06:37:23;;;;;;;5.27;3.27;;;;;;;;;;5036033;28;20266;-67
2022/06/17 06:39:49;;;;;;;7.00;3.73;;;;;;;;;;5035986;28;20660;-66
2022/06/17 06:42:15;;;;;;;6.67;3.50;;;;;;;;;;5018091;28;20573;-69
2022/06/17 06:44:43;;;;;;;5.67;3.37;;;;;;;;;;5036571;28;20171;-66
2022/06/17 06:47:10;;;;;;;3.77;3.10;;;;;;;;;;5018204;28;20206;-68
2022/06/17 06:49:36;;;;;;;3.50;3.20;;;;;;;;;;5035788;28;20254;-67
2022/06/17 06:52:02;;;;;;;4.93;3.07;;;;;;;;;;5017638;28;20666;-66
2022/06/17 06:54:28;;;;;;;3.13;2.83;;;;;;;;;;5018083;28;20175;-66
2022/06/17 06:56:55;;;;;;;5.00;3.20;;;;;;;;;;5035775;28;20545;-67
2022/06/17 06:59:21;;;;;;;3.03;2.60;;;;;;;;;;5036345;28;20171;-66
2022/06/17 07:01:47;;;;;;;5.50;3.10;;;;;;;;;;5036146;28;20198;-66
2022/06/17 07:04:15;;;;;;;3.33;2.80;;;;;;;;;;5017800;28;20218;-66
2022/06/17 07:06:41;;;;;;;5.03;2.60;;;;;;;;;;5017764;28;20207;-66
2022/06/17 07:09:10;;;;;;;3.40;2.33;;;;;;;;;;5017984;28;20245;-67
2022/06/17 07:11:36;;;;;;;6.23;2.90;;;;;;;;;;5017950;28;20268;-62
2022/06/17 07:14:02;;;;;;;4.83;2.80;;;;;;;;;;5017726;28;20187;-68
2022/06/17 07:16:28;;;;;;;3.07;2.27;;;;;;;;;;5035936;28;20576;-66
2022/06/17 07:18:54;;;;;;;6.33;2.50;;;;;;;;;;5017685;28;20565;-66
2022/06/17 07:21:20;;;;;;;2.83;2.57;;;;;;;;;;5017544;28;20360;-64
2022/06/17 07:23:46;;;;;;;3.60;2.80;;;;;;;;;;5035118;28;20288;-66
2022/06/17 07:26:17;;;;;;;3.33;2.90;;;;;;;;;;5035312;28;20175;-63
2022/06/17 07:28:44;;;;;;;2.77;2.50;;;;;;;;;;5035155;28;20314;-66
2022/06/17 07:31:10;;;;;;;3.90;3.40;;;;;;;;;;5034499;28;20202;-66
2022/06/17 07:33:36;;;;;;;5.23;3.50;;;;;;;;;;5035167;28;20550;-66
2022/06/17 07:36:03;;;;;;;6.73;4.03;;;;;;;;;;5035149;28;20202;-66
2022/06/17 07:41:17;;;;;;;6.37;3.13;;;;;;;;;;5035083;28;20728;-66
2022/06/17 07:43:43;;;;;;;3.53;3.00;;;;;;;;;;5017454;28;20207;-66
2022/06/17 07:46:10;;;;;;;3.77;2.93;;;;;;;;;;5035307;28;20190;-66
2022/06/17 07:48:38;;;;;;;6.77;2.73;;;;;;;;;;5017871;28;20266;-67
2022/06/17 07:51:04;;;;;;;3.30;2.93;;;;;;;;;;5036165;28;20321;-65
2022/06/17 07:53:31;;;;;;;5.83;4.13;;;;;;;;;;5035286;28;20317;-66
2022/06/17 07:56:00;;;;;;;8.03;4.60;;;;;;;;;;5034739;28;20326;-66
2022/06/17 07:58:27;;;;;;;6.80;4.00;;;;;;;;;;5016771;28;20206;-64
2022/06/17 08:00:53;;;;;;;7.63;4.00;;;;;;;;;;5016650;28;20206;-65
2022/06/17 08:03:20;;;;;;;5.80;3.07;;;;;;;;;;5034645;28;20195;-65
2022/06/17 08:05:51;;;;;;;7.93;4.50;;;;;;;;;;5016682;28;20186;-66
2022/06/17 08:08:21;;;;;;;6.50;4.03;;;;;;;;;;5016854;28;20619;-66
2022/06/17 08:10:48;;;;;;;7.13;3.00;;;;;;;;;;5016758;28;20203;-64
2022/06/17 08:13:14;;;;;;;3.73;2.50;;;;;;;;;;5034289;28;20185;-66
2022/06/17 08:15:40;;;;;;;2.70;2.50;;;;;;;;;;5034326;28;20555;-67
2022/06/17 08:18:06;;;;;;;2.60;2.40;;;;;;;;;;5034671;28;20262;-66
2022/06/17 08:20:34;;;;;;;3.50;2.57;;;;;;;;;;5034372;28;20241;-66
2022/06/17 08:23:02;;;;;;;2.97;2.30;;;;;;;;;;5034130;28;20202;-67
2022/06/17 08:25:28;;;;;;;4.70;2.47;;;;;;;;;;5034133;28;20179;-67
2022/06/17 08:27:56;;;;;;;5.33;2.10;;;;;;;;;;5034150;28;20233;-66
2022/06/17 08:30:28;;;;;;;2.40;2.20;;;;;;;;;;5016268;28;20203;-66
2022/06/17 08:32:55;;;;;;;3.73;2.50;;;;;;;;;;5034547;28;20195;-66
2022/06/17 08:35:31;;;;;;;3.17;2.30;;;;;;;;;;5034124;28;20183;-66
2022/06/17 08:38:04;;;;;;;4.13;2.33;;;;;;;;;;5033854;28;20595;-66
2022/06/17 08:40:43;;;;;;;3.63;2.20;;;;;;;;;;5015967;28;20205;-64
2022/06/17 08:43:20;;;;;;;4.00;2.60;;;;;;;;;;5016011;28;20206;-66
2022/06/17 08:45:52;;;;;;;4.47;2.20;;;;;;;;;;5015997;28;20174;-66
2022/06/17 08:48:34;;;;;;;3.43;2.30;;;;;;;;;;5016074;28;20635;-66
2022/06/17 08:51:19;;;;;;;5.40;2.47;;;;;;;;;;5016109;28;20199;-65
2022/06/17 08:54:06;;;;;;;3.53;2.53;;;;;;;;;;5033597;28;20183;-65
2022/06/17 08:56:37;;;;;;;4.93;2.33;;;;;;;;;;5034110;28;20163;-66
2022/06/17 08:59:16;;;;;;;6.93;2.70;;;;;;;;;;5033837;28;20171;-66
2022/06/17 09:01:52;;;;;;;3.03;2.50;;;;;;;;;;5033513;28;20249;-66
2022/06/17 09:04:32;;;;;;;3.67;2.20;;;;;;;;;;5033557;28;20195;-66
2022/06/17 09:07:17;;;;;;;3.23;2.47;;;;;;;;;;5015615;28;20600;-66
2022/06/17 09:09:49;;;;;;;3.57;3.07;;;;;;;;;;5033229;28;20190;-65
2022/06/17 09:12:22;;;;;;;2.27;2.17;;;;;;;;;;5033433;28;20174;-66
2022/06/17 09:14:54;;;;;;;6.60;2.67;;;;;;;;;;5033750;28;20174;-67
2022/06/17 09:17:40;;;;;;;6.10;2.83;;;;;;;;;;5033705;28;20199;-66
2022/06/17 09:20:07;;;;;;;5.77;2.40;;;;;;;;;;5031902;28;20211;-66
2022/06/17 09:22:42;;;;;;;4.03;2.30;;;;;;;;;;5033632;28;20278;-66
2022/06/17 09:25:10;;;;;;;5.97;2.90;;;;;;;;;;5033368;28;20198;-66
2022/06/17 09:27:37;;;;;;;5.13;2.90;;;;;;;;;;5033718;28;20179;-66
2022/06/17 09:30:15;;;;;;;4.13;2.73;;;;;;;;;;5033438;28;20585;-66
2022/06/17 09:32:50;;;;;;;5.00;2.20;;;;;;;;;;5033770;28;20174;-66
2022/06/17 09:35:16;;;;;;;6.00;2.87;;;;;;;;;;5015651;28;20178;-66
2022/06/17 09:37:56;;;;;;;3.47;2.40;;;;;;;;;;5033664;28;20580;-66
2022/06/17 09:40:30;;;;;;;4.43;2.93;;;;;;;;;;5033288;28;20237;-66
2022/06/17 09:43:16;;;;;;;3.40;2.87;;;;;;;;;;5033378;28;20572;-66
2022/06/17 09:45:45;;;;;;;7.07;2.50;;;;;;;;;;5019422;28;20233;-66
2022/06/17 09:48:21;;;;;;;2.77;2.50;;;;;;;;;;5015376;28;20175;-65
2022/06/17 09:50:51;;;;;;;3.50;2.87;;;;;;;;;;5015537;28;20206;-66
2022/06/17 09:53:26;;;;;;;4.13;2.53;;;;;;;;;;5033942;28;20182;-67
2022/06/17 09:55:54;;;;;;;4.13;2.77;;;;;;;;;;5037043;28;20190;-66
2022/06/17 09:58:25;;;;;;;6.50;3.43;;;;;;;;;;5037182;28;20190;-66
2022/06/17 10:00:53;;;;;;;6.93;3.43;;;;;;;;;;5037502;28;20198;-67
2022/06/17 10:03:22;;;;;;;2.70;2.47;;;;;;;;;;5036931;28;20210;-66
2022/06/17 10:06:00;;;;;;;4.30;2.70;;;;;;;;;;5019119;28;20214;-66
2022/06/17 10:08:59;;;;;;;5.73;3.00;;;;;;;;;;5037454;28;20171;-66
2022/06/17 10:11:44;;;;;;;3.57;2.60;;;;;;;;;;4992732;28;20220;-66
2022/06/17 10:14:24;;;;;;;2.93;2.73;;;;;;;;;;5019177;28;20240;-65
2022/06/17 10:20:03;;;;;;;4.80;2.63;;;;;;;;;;5037099;28;20222;-66
2022/06/17 10:22:45;;;;;;;8.70;2.90;;;;;;;;;;5036756;28;20237;-64
2022/06/17 10:25:23;;;;;;;5.00;2.93;;;;;;;;;;5019406;28;20190;-66
2022/06/17 10:28:08;;;;;;;4.87;2.80;;;;;;;;;;5037031;28;20741;-66
2022/06/17 10:30:34;;;;;;;4.00;2.90;;;;;;;;;;5036728;28;20195;-66
2022/06/17 10:33:00;;;;;;;7.07;3.27;;;;;;;;;;5019093;28;20690;-64
2022/06/17 10:35:31;;;;;;;6.13;2.97;;;;;;;;;;5036513;28;20175;-66
2022/06/17 10:37:58;;;;;;;3.63;2.73;;;;;;;;;;5018412;28;20190;-66
2022/06/17 10:40:25;;;;;;;3.17;2.30;;;;;;;;;;5036263;28;20199;-66
2022/06/17 10:42:53;;;;;;;5.53;3.00;;;;;;;;;;5035888;28;20217;-65
2022/06/17 10:45:19;;;;;;;5.97;2.70;;;;;;;;;;5036004;28;20265;-66
2022/06/17 10:47:54;;;;;;;6.23;2.60;;;;;;;;;;5035813;28;20213;-66
2022/06/17 10:50:22;;;;;;;8.93;2.80;;;;;;;;;;5035610;28;20221;-66
2022/06/17 10:53:08;;;;;;;3.73;2.60;;;;;;;;;;5018339;28;20187;-66
2022/06/17 10:55:37;;;;;;;4.33;2.30;;;;;;;;;;5021183;28;20195;-65
2022/06/17 10:58:05;;;;;;;6.07;3.47;;;;;;;;;;5035799;28;20236;-65
2022/06/17 11:00:32;;;;;;;6.40;2.90;;;;;;;;;;5017947;28;20203;-66
2022/06/17 11:03:14;;;;;;;6.70;2.40;;;;;;;;;;5035885;28;20199;-66
2022/06/17 11:05:40;;;;;;;3.60;2.57;;;;;;;;;;5034457;28;20163;-67
2022/06/17 11:08:19;;;;;;;5.07;2.57;;;;;;;;;;5035900;28;20181;-66
2022/06/17 11:10:50;;;;;;;5.80;3.10;;;;;;;;;;5017869;28;20234;-66
2022/06/17 11:13:16;;;;;;;5.40;2.60;;;;;;;;;;5035961;28;20168;-66
2022/06/17 11:15:46;;;;;;;2.40;2.20;;;;;;;;;;5017647;28;20202;-66
2022/06/17 11:18:29;;;;;;;4.83;2.43;;;;;;;;;;5017720;28;20670;-66
2022/06/17 11:21:00;;;;;;;3.33;2.43;;;;;;;;;;5035305;28;20218;-67
2022/06/17 11:23:29;;;;;;;2.63;2.30;;;;;;;;;;5035725;28;20195;-66
2022/06/17 11:26:15;;;;;;;3.60;2.80;;;;;;;;;;5035427;28;20190;-66
2022/06/17 11:28:43;;;;;;;2.30;2.10;;;;;;;;;;5035489;28;20654;-66
2022/06/17 11:31:14;;;;;;;3.07;2.53;;;;;;;;;;5017289;28;20199;-66
2022/06/17 11:33:54;;;;;;;3.13;2.33;;;;;;;;;;5035096;28;20183;-66
2022/06/17 11:36:31;;;;;;;4.23;2.77;;;;;;;;;;5017280;28;20611;-66
2022/06/17 11:38:58;;;;;;;4.50;2.10;;;;;;;;;;5034766;28;20187;-66
2022/06/17 11:41:26;;;;;;;2.60;2.00;;;;;;;;;;5034803;28;20281;-66
2022/06/17 11:43:54;;;;;;;2.70;2.23;;;;;;;;;;5034764;28;20274;-66
2022/06/17 11:46:22;;;;;;;3.07;2.13;;;;;;;;;;5017007;28;20269;-66
2022/06/17 11:48:57;;;;;;;2.67;2.47;;;;;;;;;;5034800;28;20182;-65
2022/06/17 11:51:31;;;;;;;4.57;3.13;;;;;;;;;;5034969;28;20202;-67
2022/06/17 11:53:58;;;;;;;4.23;2.63;;;;;;;;;;5035027;28;20181;-66
2022/06/17 11:56:29;;;;;;;4.00;2.90;;;;;;;;;;5035129;28;20651;-66
2022/06/17 11:58:57;;;;;;;2.30;2.10;;;;;;;;;;5034749;28;20304;-67
2022/06/17 12:01:23;;;;;;;2.97;2.20;;;;;;;;;;5034826;28;20198;-66
2022/06/17 12:03:49;;;;;;;2.07;1.90;;;;;;;;;;5034885;28;20213;-66
2022/06/17 12:06:23;;;;;;;2.40;2.15;;;;;;;;;;5033563;28;20379;-66
2022/06/17 12:08:54;;;;;;;5.97;2.85;;;;;;;;;;5015755;28;20406;-66
2022/06/17 12:11:26;;;;;;;3.93;2.40;;;;;;;;;;5035046;28;20194;-67
2022/06/17 12:13:56;;;;;;;5.17;2.50;;;;;;;;;;5034723;28;20164;-67
2022/06/17 12:16:24;;;;;;;4.82;2.45;;;;;;;;;;5033080;28;20387;-66
2022/06/17 12:18:51;;;;;;;;;;;;;;;;;;5034816;28;20028;-66
2022/06/17 12:21:18;;;;;;;;;;;;;;;;;;5026601;28;20041;-65
2022/06/17 12:23:44;;;;;;;;;;;;;;;;;;5017143;28;20426;-66
2022/06/17 12:26:09;;;;;;;;;;;;;;;;;;5017057;28;19905;-66
2022/06/17 12:28:35;;;;;;;;;;;;;;;;;;5070994;22;20292;-69
2022/06/17 12:31:01;;;;;;;;;;;;;;;;;;5080223;28;19905;-70
2022/06/17 12:33:27;;;;;;;;;;;;;;;;;;5080827;28;19908;-71
2022/06/17 12:35:53;;;;;;;;;;;;;;;;;;5079242;28;19911;-70
2022/06/17 12:38:19;;;;;;;;;;;;;;;;;;5078589;28;19904;-70
2022/06/17 12:40:45;;;;;;;;;;;;;;;;;;5075068;28;19987;-69
2022/06/17 12:43:11;;;;;;;;;;;;;;;;;;5056982;28;19957;-70
2022/06/17 12:45:37;;;;;;;;;;;;;;;;;;5074866;28;19995;-70
2022/06/17 12:48:03;;;;;;;;;;;;;;;;;;5056610;28;19955;-70
2022/06/17 12:53:14;;;;;;;;;;;;;;;;;;5074914;28;19937;-70
2022/06/17 12:55:40;;;;;;;;;;;;;;;;;;5074664;28;19915;-70
2022/06/17 12:58:06;;;;;;;;;;;;;;;;;;5074349;28;19905;-68
2022/06/17 13:00:32;;;;;;;;;;;;;;;;;;5074328;28;19962;-68
2022/06/17 13:02:58;;;;;;;;;;;;;;;;;;5074226;28;19909;-69
2022/06/17 13:05:24;;;;;;;;;;;;;;;;;;5056213;28;19954;-67
2022/06/17 13:07:50;;;;;;;;;;;;;;;;;;5074266;28;20475;-68
2022/06/17 13:13:06;;;;;;;4.13;2.28;;;;;;;;;;5072494;28;20476;-68
2022/06/17 13:15:35;;;;;;;3.25;2.50;;;;;;;;;;5054651;28;20386;-68
2022/06/17 13:18:13;;;;;;;4.05;2.65;;;;;;;;;;5072622;28;20384;-68
2022/06/17 13:20:47;;;;;;;4.07;2.60;;;;;;;;;;5072479;28;20379;-69
2022/06/17 13:23:21;;;;;;;2.67;2.38;;;;;;;;;;5073945;28;20335;-68
2022/06/17 13:25:53;;;;;;;7.22;2.53;;;;;;;;;;5073745;28;20189;-68
2022/06/17 13:28:45;;;;;;;4.05;2.40;;;;;;;;;;5072780;28;20209;-68
2022/06/17 13:31:45;;;;;;;2.97;2.30;;;;;;;;;;5069696;28;20197;-68
2022/06/17 13:34:16;;;;;;;4.50;2.60;;;;;;;;;;5030250;28;20209;-68
2022/06/17 13:36:48;;;;;;;3.55;2.67;;;;;;;;;;5073827;28;20502;-68
2022/06/17 13:39:17;;;;;;;3.60;2.03;;;;;;;;;;5055370;28;20197;-67
2022/06/17 13:42:03;;;;;;;3.28;2.25;;;;;;;;;;5073518;28;20172;-67
2022/06/17 13:44:31;;;;;;;2.10;1.90;;;;;;;;;;5073447;28;20193;-68
2022/06/17 13:47:16;;;;;;;3.70;1.98;;;;;;;;;;5055527;28;20175;-67
2022/06/17 13:49:48;;;;;;;2.65;2.08;;;;;;;;;;5073190;28;20189;-68
2022/06/17 13:52:13;;;;;;;3.28;2.03;;;;;;;;;;5073610;28;20622;-68
2022/06/17 13:54:39;;;;;;;4.28;2.58;;;;;;;;;;5055479;28;20248;-67
2022/06/17 13:57:05;;;;;;;3.05;1.92;;;;;;;;;;5073364;28;20303;-69
2022/06/17 13:59:37;;;;;;;2.20;2.00;;;;;;;;;;5073144;28;20212;-68
2022/06/17 14:02:15;;;;;;;2.85;1.80;;;;;;;;;;5055226;28;20296;-68
2022/06/17 14:04:59;;;;;;;7.03;2.13;;;;;;;;;;5073131;28;20192;-68
2022/06/17 14:07:44;;;;;;;1.90;1.80;;;;;;;;;;5055230;28;20174;-67
2022/06/17 14:10:28;;;;;;;3.85;2.30;;;;;;;;;;5073534;28;20556;-68
2022/06/17 14:12:55;;;;;;;2.47;2.10;;;;;;;;;;5073351;28;20177;-68
2022/06/17 14:15:28;;;;;;;2.05;1.95;;;;;;;;;;5073014;28;20182;-68
2022/06/17 14:17:56;;;;;;;6.55;2.42;;;;;;;;;;5073224;28;20194;-68
2022/06/17 14:20:25;;;;;;;2.47;2.28;;;;;;;;;;5073326;28;20174;-69
2022/06/17 14:23:08;;;;;;;3.55;2.20;;;;;;;;;;5055577;28;20557;-67
2022/06/17 14:25:45;;;;;;;3.45;2.40;;;;;;;;;;5073070;28;20195;-66
2022/06/17 14:28:31;;;;;;;3.17;2.55;;;;;;;;;;5073055;28;20232;-68
2022/06/17 14:31:10;;;;;;;5.07;2.30;;;;;;;;;;5073181;28;20642;-68
2022/06/17 14:33:41;;;;;;;3.78;2.30;;;;;;;;;;5072894;28;20215;-67
2022/06/17 14:36:35;;;;;;;5.82;2.15;;;;;;;;;;5072902;28;20281;-67
2022/06/17 14:39:03;;;;;;;3.75;2.08;;;;;;;;;;5054689;28;20201;-67
2022/06/17 14:42:02;;;;;;;2.83;2.50;;;;;;;;;;5076734;28;20178;-68
2022/06/17 14:44:34;;;;;;;2.33;2.13;;;;;;;;;;5031716;28;20224;-67
2022/06/17 14:47:23;;;;;;;2.28;2.05;;;;;;;;;;5076338;28;20177;-67
2022/06/17 14:50:08;;;;;;;2.83;2.40;;;;;;;;;;5058802;28;20549;-67
2022/06/17 14:52:36;;;;;;;4.07;2.75;;;;;;;;;;5076235;28;20257;-67
2022/06/17 14:55:17;;;;;;;2.60;2.17;;;;;;;;;;5076448;28;20264;-67
2022/06/17 14:57:46;;;;;;;3.20;2.05;;;;;;;;;;5076377;28;20612;-67
2022/06/17 15:00:12;;;;;;;5.03;2.10;;;;;;;;;;5076600;28;20170;-67
2022/06/17 15:02:42;;;;;;;5.22;2.20;;;;;;;;;;5058214;28;20202;-68
2022/06/17 15:05:29;;;;;;;2.33;2.13;;;;;;;;;;5058761;28;20173;-68
2022/06/17 15:08:13;;;;;;;2.20;2.10;;;;;;;;;;5075922;28;20625;-67
2022/06/17 15:10:42;;;;;;;4.18;2.30;;;;;;;;;;5075969;28;20657;-67
2022/06/17 15:15:59;;;;;;;2.22;1.88;;;;;;;;;;5076123;28;20558;-67
2022/06/17 15:18:25;;;;;;;3.72;2.00;;;;;;;;;;5075781;28;20221;-68
2022/06/17 15:20:52;;;;;;;2.90;2.25;;;;;;;;;;5057928;28;20260;-67